Aérodrome :
LOGIN :

S'inscrire | Disclaimer

   EN    FR    IT 

 










Légende :    VFR   VFR Marginal   IFR   IFR Intensif   IFR Très Intensif
Visi : 
Plafond : 
>= 8 km
>= 3000ft
5 à 8 km
1000 à 3000 ft
1500m à 5 km
500 à 1000 ft
800 à 1500m
200 à 500 ft
< 800m
< 200 ft
Symboles :   Orages  Brouillard  Fortes neiges  Fortes précipitations  Vent > 20 kt
SIGMETs :   Divers  Orages  Givrage  Turbulence  Onde Orograph.  Cendres Volcan.







- Altitude de l'aérodrome : 776 ft
- Code IATA : RMS


ETAR - Ramstein Air Base

DERNIER METAR :
  • 191316Z 25007KT 9999 FEW024 SCT029 BKN036 06/04 A3011 RMK AO2A RAB1256E05DZB05E06 SLP208 $

METARs EXPIRÉS :
  • 191257Z 27012KT 9999 -RA BKN027 OVC036 06/04 A3011 RMK AO2A RAB56 SLP208 $
  • 191246Z 28013KT 9999 BKN029 BKN035 BKN043 06/03 A3011 RMK AO2A CIG 029V035 BKN029 V SCT SLP208 $
  • 191156Z 27012G19KT 9999 FEW030 BKN036 BKN060 06/03 A3010 RMK AO2A SLP204 60000 70005 T00640034 10070 20032 52010 $
  • 191056Z 26014KT 9999 SCT027 BKN034 07/04 A3010 RMK AO2A SLP203 T00660036 $

TAF TAF ETAR
Valide du 19 à 10h jusqu'au 20 à 16h UTC


191006Z 1910/2016 27012KT 9999 SCT030 QNH3007INS
TEMPO 1911/1916 27012G20KT
BECMG 1923/1924 26006KT 8000 BR FEW010 SCT050 QNH3015INS
TEMPO 2003/2006 3200 BR BKN010 620206
BECMG 2007/2008 24006KT 9999 NSW SCT030 QNH3010INS
BECMG 2012/2013 21009KT 9999 BKN015 620309 621203 QNH3005INS TX07/1914Z TNM01/2004Z
Pas de NOTAMs connus pour ce terrain.



MET'MAP, la Météo Aéronautique d'un coup d'oeil ! - Copyright ORBIFLY Décembre 2007 - Disclaimer

ORBIFLY MET'MAP TEAM :

Programmation & Développement : Alexandra Zaïnal
Conception & Développement : Baudouin d'Aumeries
Co-Programmation & Développement : Marc-Olivier Méhu
Soutien technique & logistique : Manuel Goepfert

Contact : metmap@orbifly.com




SOURCES & CREDITS :

   NOAA